sensor_id;sensor_type;location;lat;lon;timestamp;temperature;humidity
15386;DHT22;7791;47.246;9.648;2023-04-03T00:00:35;7.00;99.90
15386;DHT22;7791;47.246;9.648;2023-04-03T00:03:01;7.00;99.90
15386;DHT22;7791;47.246;9.648;2023-04-03T00:05:27;7.00;99.90
15386;DHT22;7791;47.246;9.648;2023-04-03T00:07:52;7.00;99.90
15386;DHT22;7791;47.246;9.648;2023-04-03T00:10:18;7.00;99.90
15386;DHT22;7791;47.246;9.648;2023-04-03T00:12:44;7.00;99.90
15386;DHT22;7791;47.246;9.648;2023-04-03T00:15:10;7.00;99.90
15386;DHT22;7791;47.246;9.648;2023-04-03T00:17:38;6.90;99.90
15386;DHT22;7791;47.246;9.648;2023-04-03T00:20:07;6.80;99.90
15386;DHT22;7791;47.246;9.648;2023-04-03T00:22:33;6.80;99.90
15386;DHT22;7791;47.246;9.648;2023-04-03T00:24:58;6.70;99.90
15386;DHT22;7791;47.246;9.648;2023-04-03T00:27:24;6.60;99.90
15386;DHT22;7791;47.246;9.648;2023-04-03T00:29:50;6.50;99.90
15386;DHT22;7791;47.246;9.648;2023-04-03T00:32:16;6.50;99.90
15386;DHT22;7791;47.246;9.648;2023-04-03T00:34:43;6.40;99.90
15386;DHT22;7791;47.246;9.648;2023-04-03T00:37:09;6.30;99.90
15386;DHT22;7791;47.246;9.648;2023-04-03T00:39:34;6.30;99.90
15386;DHT22;7791;47.246;9.648;2023-04-03T00:42:00;6.40;99.90
15386;DHT22;7791;47.246;9.648;2023-04-03T00:47:25;6.40;99.90
15386;DHT22;7791;47.246;9.648;2023-04-03T00:49:53;6.30;99.90
15386;DHT22;7791;47.246;9.648;2023-04-03T00:52:22;6.20;99.90
15386;DHT22;7791;47.246;9.648;2023-04-03T00:54:50;6.20;99.90
15386;DHT22;7791;47.246;9.648;2023-04-03T00:57:18;6.10;99.90
15386;DHT22;7791;47.246;9.648;2023-04-03T00:59:46;6.20;99.90
15386;DHT22;7791;47.246;9.648;2023-04-03T01:02:13;6.10;99.90
15386;DHT22;7791;47.246;9.648;2023-04-03T01:04:41;6.10;99.90
15386;DHT22;7791;47.246;9.648;2023-04-03T01:07:11;6.10;99.90
15386;DHT22;7791;47.246;9.648;2023-04-03T01:09:38;6.10;99.90
15386;DHT22;7791;47.246;9.648;2023-04-03T01:12:15;6.10;99.90
15386;DHT22;7791;47.246;9.648;2023-04-03T01:14:40;6.10;99.90
15386;DHT22;7791;47.246;9.648;2023-04-03T01:17:28;6.10;99.90
15386;DHT22;7791;47.246;9.648;2023-04-03T01:20:03;6.10;99.90
15386;DHT22;7791;47.246;9.648;2023-04-03T01:22:40;6.00;99.90
15386;DHT22;7791;47.246;9.648;2023-04-03T01:25:09;6.00;99.90
15386;DHT22;7791;47.246;9.648;2023-04-03T01:27:34;5.90;99.90
15386;DHT22;7791;47.246;9.648;2023-04-03T01:30:00;5.70;99.90
15386;DHT22;7791;47.246;9.648;2023-04-03T01:32:27;5.60;99.90
15386;DHT22;7791;47.246;9.648;2023-04-03T01:34:53;5.50;99.90
15386;DHT22;7791;47.246;9.648;2023-04-03T01:37:19;5.40;99.90
15386;DHT22;7791;47.246;9.648;2023-04-03T01:39:44;5.30;99.90
15386;DHT22;7791;47.246;9.648;2023-04-03T01:42:13;5.20;99.90
15386;DHT22;7791;47.246;9.648;2023-04-03T01:44:39;5.30;99.90
15386;DHT22;7791;47.246;9.648;2023-04-03T01:47:06;5.30;99.90
15386;DHT22;7791;47.246;9.648;2023-04-03T01:49:33;5.30;99.90
15386;DHT22;7791;47.246;9.648;2023-04-03T01:51:59;5.30;99.90
15386;DHT22;7791;47.246;9.648;2023-04-03T01:54:24;5.20;99.90
15386;DHT22;7791;47.246;9.648;2023-04-03T01:56:50;5.10;99.90
15386;DHT22;7791;47.246;9.648;2023-04-03T01:59:16;5.10;99.90
15386;DHT22;7791;47.246;9.648;2023-04-03T02:01:42;5.20;99.90
15386;DHT22;7791;47.246;9.648;2023-04-03T02:04:07;5.10;99.90
15386;DHT22;7791;47.246;9.648;2023-04-03T02:06:35;5.10;99.90
15386;DHT22;7791;47.246;9.648;2023-04-03T02:09:00;5.10;99.90
15386;DHT22;7791;47.246;9.648;2023-04-03T02:11:26;5.10;99.90
15386;DHT22;7791;47.246;9.648;2023-04-03T02:13:52;5.20;99.90
15386;DHT22;7791;47.246;9.648;2023-04-03T02:16:17;5.20;99.90
15386;DHT22;7791;47.246;9.648;2023-04-03T02:18:43;5.10;99.90
15386;DHT22;7791;47.246;9.648;2023-04-03T02:21:09;5.10;99.90
15386;DHT22;7791;47.246;9.648;2023-04-03T02:23:36;5.00;99.90
15386;DHT22;7791;47.246;9.648;2023-04-03T02:26:06;4.90;99.90
15386;DHT22;7791;47.246;9.648;2023-04-03T02:28:32;4.80;99.90
15386;DHT22;7791;47.246;9.648;2023-04-03T02:30:58;4.90;99.90
15386;DHT22;7791;47.246;9.648;2023-04-03T02:33:24;5.00;99.90
15386;DHT22;7791;47.246;9.648;2023-04-03T02:35:53;5.00;99.90
15386;DHT22;7791;47.246;9.648;2023-04-03T02:38:18;4.90;99.90
15386;DHT22;7791;47.246;9.648;2023-04-03T02:40:45;4.90;99.90
15386;DHT22;7791;47.246;9.648;2023-04-03T02:43:11;4.90;99.90
15386;DHT22;7791;47.246;9.648;2023-04-03T02:45:37;4.80;99.90
15386;DHT22;7791;47.246;9.648;2023-04-03T02:48:03;4.80;99.90
15386;DHT22;7791;47.246;9.648;2023-04-03T02:50:29;4.70;99.90
15386;DHT22;7791;47.246;9.648;2023-04-03T02:52:54;4.60;99.90
15386;DHT22;7791;47.246;9.648;2023-04-03T02:55:22;4.60;99.90
15386;DHT22;7791;47.246;9.648;2023-04-03T02:57:49;4.50;99.90
15386;DHT22;7791;47.246;9.648;2023-04-03T03:00:15;4.40;99.90
15386;DHT22;7791;47.246;9.648;2023-04-03T03:02:41;4.40;99.90
15386;DHT22;7791;47.246;9.648;2023-04-03T03:05:08;4.40;99.90
15386;DHT22;7791;47.246;9.648;2023-04-03T03:07:34;4.40;99.90
15386;DHT22;7791;47.246;9.648;2023-04-03T03:10:00;4.40;99.90
15386;DHT22;7791;47.246;9.648;2023-04-03T03:12:25;4.40;99.90
15386;DHT22;7791;47.246;9.648;2023-04-03T03:14:52;4.40;99.90
15386;DHT22;7791;47.246;9.648;2023-04-03T03:17:18;4.40;99.90
15386;DHT22;7791;47.246;9.648;2023-04-03T03:19:44;4.40;99.90
15386;DHT22;7791;47.246;9.648;2023-04-03T03:22:10;4.40;99.90
15386;DHT22;7791;47.246;9.648;2023-04-03T03:24:35;4.40;99.90
15386;DHT22;7791;47.246;9.648;2023-04-03T03:27:01;4.30;99.90
15386;DHT22;7791;47.246;9.648;2023-04-03T03:29:27;4.20;99.90
15386;DHT22;7791;47.246;9.648;2023-04-03T03:31:54;4.10;99.90
15386;DHT22;7791;47.246;9.648;2023-04-03T03:34:20;3.90;99.90
15386;DHT22;7791;47.246;9.648;2023-04-03T03:36:46;3.90;99.90
15386;DHT22;7791;47.246;9.648;2023-04-03T03:39:12;3.90;99.90
15386;DHT22;7791;47.246;9.648;2023-04-03T03:41:38;3.90;99.90
15386;DHT22;7791;47.246;9.648;2023-04-03T03:44:04;4.00;99.90
15386;DHT22;7791;47.246;9.648;2023-04-03T03:46:30;4.00;99.90
15386;DHT22;7791;47.246;9.648;2023-04-03T03:48:57;4.00;99.90
15386;DHT22;7791;47.246;9.648;2023-04-03T03:51:22;4.00;99.90
15386;DHT22;7791;47.246;9.648;2023-04-03T03:53:48;3.90;99.90
15386;DHT22;7791;47.246;9.648;2023-04-03T03:56:14;3.80;99.90
15386;DHT22;7791;47.246;9.648;2023-04-03T03:58:40;3.70;99.90
15386;DHT22;7791;47.246;9.648;2023-04-03T04:01:06;3.70;99.90
15386;DHT22;7791;47.246;9.648;2023-04-03T04:03:33;3.60;99.90
15386;DHT22;7791;47.246;9.648;2023-04-03T04:06:00;3.60;99.90
15386;DHT22;7791;47.246;9.648;2023-04-03T04:08:26;3.60;99.90
15386;DHT22;7791;47.246;9.648;2023-04-03T04:10:52;3.60;99.90
15386;DHT22;7791;47.246;9.648;2023-04-03T04:13:18;3.60;99.90
15386;DHT22;7791;47.246;9.648;2023-04-03T04:15:44;3.60;99.90
15386;DHT22;7791;47.246;9.648;2023-04-03T04:18:09;3.60;99.90
15386;DHT22;7791;47.246;9.648;2023-04-03T04:20:35;3.50;99.90
15386;DHT22;7791;47.246;9.648;2023-04-03T04:23:02;3.50;99.90
15386;DHT22;7791;47.246;9.648;2023-04-03T04:25:28;3.40;99.90
15386;DHT22;7791;47.246;9.648;2023-04-03T04:27:54;3.50;99.90
15386;DHT22;7791;47.246;9.648;2023-04-03T04:30:19;3.40;99.90
15386;DHT22;7791;47.246;9.648;2023-04-03T04:32:45;3.50;99.90
15386;DHT22;7791;47.246;9.648;2023-04-03T04:35:11;3.50;99.90
15386;DHT22;7791;47.246;9.648;2023-04-03T04:37:37;3.60;99.90
15386;DHT22;7791;47.246;9.648;2023-04-03T04:40:05;3.50;99.90
15386;DHT22;7791;47.246;9.648;2023-04-03T04:42:34;3.40;99.90
15386;DHT22;7791;47.246;9.648;2023-04-03T04:44:59;3.40;99.90
15386;DHT22;7791;47.246;9.648;2023-04-03T04:47:25;3.50;99.90
15386;DHT22;7791;47.246;9.648;2023-04-03T04:49:53;3.60;99.90
15386;DHT22;7791;47.246;9.648;2023-04-03T04:52:19;3.50;99.90
15386;DHT22;7791;47.246;9.648;2023-04-03T04:54:44;3.60;99.90
15386;DHT22;7791;47.246;9.648;2023-04-03T04:57:12;3.70;99.90
15386;DHT22;7791;47.246;9.648;2023-04-03T04:59:37;3.90;99.90
15386;DHT22;7791;47.246;9.648;2023-04-03T05:02:03;3.80;99.90
15386;DHT22;7791;47.246;9.648;2023-04-03T05:04:29;3.60;99.90
15386;DHT22;7791;47.246;9.648;2023-04-03T05:06:55;3.60;99.90
15386;DHT22;7791;47.246;9.648;2023-04-03T05:09:21;3.60;99.90
15386;DHT22;7791;47.246;9.648;2023-04-03T05:11:47;3.40;99.90
15386;DHT22;7791;47.246;9.648;2023-04-03T05:14:14;3.40;99.90
15386;DHT22;7791;47.246;9.648;2023-04-03T05:16:40;3.30;99.90
15386;DHT22;7791;47.246;9.648;2023-04-03T05:19:05;3.40;99.90
15386;DHT22;7791;47.246;9.648;2023-04-03T05:21:31;3.50;99.90
15386;DHT22;7791;47.246;9.648;2023-04-03T05:23:57;3.50;99.90
15386;DHT22;7791;47.246;9.648;2023-04-03T05:26:22;3.60;99.90
15386;DHT22;7791;47.246;9.648;2023-04-03T05:28:48;3.60;99.90
15386;DHT22;7791;47.246;9.648;2023-04-03T05:31:16;3.70;99.90
15386;DHT22;7791;47.246;9.648;2023-04-03T05:33:41;3.90;99.90
15386;DHT22;7791;47.246;9.648;2023-04-03T05:36:08;3.80;99.90
15386;DHT22;7791;47.246;9.648;2023-04-03T05:38:34;3.70;99.90
15386;DHT22;7791;47.246;9.648;2023-04-03T05:40:59;3.80;99.90
15386;DHT22;7791;47.246;9.648;2023-04-03T05:43:25;3.80;99.90
15386;DHT22;7791;47.246;9.648;2023-04-03T05:45:52;3.80;99.90
15386;DHT22;7791;47.246;9.648;2023-04-03T05:48:19;3.80;99.90
15386;DHT22;7791;47.246;9.648;2023-04-03T05:50:46;3.90;99.90
15386;DHT22;7791;47.246;9.648;2023-04-03T05:53:16;3.80;99.90
15386;DHT22;7791;47.246;9.648;2023-04-03T05:55:42;3.80;99.90
15386;DHT22;7791;47.246;9.648;2023-04-03T05:58:08;3.90;99.90
15386;DHT22;7791;47.246;9.648;2023-04-03T06:00:34;3.60;99.90
15386;DHT22;7791;47.246;9.648;2023-04-03T06:03:00;3.50;99.90
15386;DHT22;7791;47.246;9.648;2023-04-03T06:05:27;3.50;99.90
15386;DHT22;7791;47.246;9.648;2023-04-03T06:07:52;3.40;99.90
15386;DHT22;7791;47.246;9.648;2023-04-03T06:10:18;3.40;99.90
15386;DHT22;7791;47.246;9.648;2023-04-03T06:12:44;3.40;99.90
15386;DHT22;7791;47.246;9.648;2023-04-03T06:15:10;3.40;99.90
15386;DHT22;7791;47.246;9.648;2023-04-03T06:17:36;3.50;99.90
15386;DHT22;7791;47.246;9.648;2023-04-03T06:20:02;3.60;99.90
15386;DHT22;7791;47.246;9.648;2023-04-03T06:22:29;3.70;99.90
15386;DHT22;7791;47.246;9.648;2023-04-03T06:24:55;3.60;99.90
15386;DHT22;7791;47.246;9.648;2023-04-03T06:27:21;3.50;99.90
15386;DHT22;7791;47.246;9.648;2023-04-03T06:29:46;3.50;99.90
15386;DHT22;7791;47.246;9.648;2023-04-03T06:32:12;3.50;99.90
15386;DHT22;7791;47.246;9.648;2023-04-03T06:34:38;3.50;99.90
15386;DHT22;7791;47.246;9.648;2023-04-03T06:37:04;3.60;99.90
15386;DHT22;7791;47.246;9.648;2023-04-03T06:39:31;3.60;99.90
15386;DHT22;7791;47.246;9.648;2023-04-03T06:41:56;3.50;99.90
15386;DHT22;7791;47.246;9.648;2023-04-03T06:44:28;3.60;99.90
15386;DHT22;7791;47.246;9.648;2023-04-03T06:46:54;3.80;99.90
15386;DHT22;7791;47.246;9.648;2023-04-03T06:55:27;3.70;99.90
15386;DHT22;7791;47.246;9.648;2023-04-03T06:57:53;3.90;99.90
15386;DHT22;7791;47.246;9.648;2023-04-03T07:00:20;3.80;99.90
15386;DHT22;7791;47.246;9.648;2023-04-03T07:02:46;3.90;99.90
15386;DHT22;7791;47.246;9.648;2023-04-03T07:05:20;3.90;99.90
15386;DHT22;7791;47.246;9.648;2023-04-03T07:07:46;3.80;99.90
15386;DHT22;7791;47.246;9.648;2023-04-03T07:10:12;3.90;99.90
15386;DHT22;7791;47.246;9.648;2023-04-03T07:12:39;4.00;99.90
15386;DHT22;7791;47.246;9.648;2023-04-03T07:15:05;4.00;99.90
15386;DHT22;7791;47.246;9.648;2023-04-03T07:17:31;4.00;99.90
15386;DHT22;7791;47.246;9.648;2023-04-03T07:19:57;3.90;99.90
15386;DHT22;7791;47.246;9.648;2023-04-03T07:22:27;3.90;99.90
15386;DHT22;7791;47.246;9.648;2023-04-03T07:24:52;4.00;99.90
15386;DHT22;7791;47.246;9.648;2023-04-03T07:27:18;4.10;99.90
15386;DHT22;7791;47.246;9.648;2023-04-03T07:29:45;4.20;99.90
15386;DHT22;7791;47.246;9.648;2023-04-03T07:32:11;4.60;99.90
15386;DHT22;7791;47.246;9.648;2023-04-03T07:34:36;4.40;99.90
15386;DHT22;7791;47.246;9.648;2023-04-03T07:37:02;4.30;99.90
15386;DHT22;7791;47.246;9.648;2023-04-03T07:39:28;4.40;99.90
15386;DHT22;7791;47.246;9.648;2023-04-03T07:41:54;4.30;99.90
15386;DHT22;7791;47.246;9.648;2023-04-03T07:44:22;4.40;99.90
15386;DHT22;7791;47.246;9.648;2023-04-03T07:46:49;4.60;99.90
15386;DHT22;7791;47.246;9.648;2023-04-03T07:49:15;4.80;99.90
15386;DHT22;7791;47.246;9.648;2023-04-03T07:51:41;4.80;99.90
15386;DHT22;7791;47.246;9.648;2023-04-03T07:54:06;4.80;99.90
15386;DHT22;7791;47.246;9.648;2023-04-03T07:56:32;4.90;99.90
15386;DHT22;7791;47.246;9.648;2023-04-03T07:58:58;4.80;99.90
15386;DHT22;7791;47.246;9.648;2023-04-03T08:01:24;4.50;99.90
15386;DHT22;7791;47.246;9.648;2023-04-03T08:03:51;4.40;99.90
15386;DHT22;7791;47.246;9.648;2023-04-03T08:06:17;4.60;99.90
15386;DHT22;7791;47.246;9.648;2023-04-03T08:08:43;4.50;99.90
15386;DHT22;7791;47.246;9.648;2023-04-03T08:11:10;4.60;99.90
15386;DHT22;7791;47.246;9.648;2023-04-03T08:13:36;4.60;99.90
15386;DHT22;7791;47.246;9.648;2023-04-03T08:16:13;4.70;99.90
15386;DHT22;7791;47.246;9.648;2023-04-03T08:18:38;4.70;99.90
15386;DHT22;7791;47.246;9.648;2023-04-03T08:21:09;4.70;99.90
15386;DHT22;7791;47.246;9.648;2023-04-03T08:23:35;4.60;99.90
15386;DHT22;7791;47.246;9.648;2023-04-03T08:26:06;4.60;99.90
15386;DHT22;7791;47.246;9.648;2023-04-03T08:28:32;4.50;99.90
15386;DHT22;7791;47.246;9.648;2023-04-03T08:31:02;4.60;99.90
15386;DHT22;7791;47.246;9.648;2023-04-03T08:33:28;4.60;99.90
15386;DHT22;7791;47.246;9.648;2023-04-03T08:35:54;4.50;99.90
15386;DHT22;7791;47.246;9.648;2023-04-03T08:38:21;4.50;99.90
15386;DHT22;7791;47.246;9.648;2023-04-03T08:40:47;4.50;99.90
15386;DHT22;7791;47.246;9.648;2023-04-03T08:43:30;4.40;99.90
15386;DHT22;7791;47.246;9.648;2023-04-03T08:46:01;4.40;99.90
15386;DHT22;7791;47.246;9.648;2023-04-03T08:48:30;4.40;99.90
15386;DHT22;7791;47.246;9.648;2023-04-03T08:50:59;4.40;99.90
15386;DHT22;7791;47.246;9.648;2023-04-03T08:53:34;4.30;99.90
15386;DHT22;7791;47.246;9.648;2023-04-03T08:56:05;4.20;99.90
15386;DHT22;7791;47.246;9.648;2023-04-03T08:58:41;4.20;99.90
15386;DHT22;7791;47.246;9.648;2023-04-03T09:01:17;4.20;99.90
15386;DHT22;7791;47.246;9.648;2023-04-03T09:03:44;4.20;99.90
15386;DHT22;7791;47.246;9.648;2023-04-03T09:06:13;4.50;99.90
15386;DHT22;7791;47.246;9.648;2023-04-03T09:08:43;4.70;99.90
15386;DHT22;7791;47.246;9.648;2023-04-03T09:11:16;4.60;99.90
15386;DHT22;7791;47.246;9.648;2023-04-03T09:13:51;4.60;99.90
15386;DHT22;7791;47.246;9.648;2023-04-03T09:16:31;4.80;99.90
15386;DHT22;7791;47.246;9.648;2023-04-03T09:19:06;4.80;99.90
15386;DHT22;7791;47.246;9.648;2023-04-03T09:21:37;4.90;99.90
15386;DHT22;7791;47.246;9.648;2023-04-03T09:24:05;4.90;99.90
15386;DHT22;7791;47.246;9.648;2023-04-03T09:26:36;4.90;99.90
15386;DHT22;7791;47.246;9.648;2023-04-03T09:29:06;4.90;99.90
15386;DHT22;7791;47.246;9.648;2023-04-03T09:31:36;5.00;99.90
15386;DHT22;7791;47.246;9.648;2023-04-03T09:34:08;5.20;99.90
15386;DHT22;7791;47.246;9.648;2023-04-03T09:36:43;5.20;99.90
15386;DHT22;7791;47.246;9.648;2023-04-03T09:39:13;5.30;99.90
15386;DHT22;7791;47.246;9.648;2023-04-03T09:41:39;5.40;99.90
15386;DHT22;7791;47.246;9.648;2023-04-03T09:44:21;5.30;99.90
15386;DHT22;7791;47.246;9.648;2023-04-03T09:46:47;5.40;99.90
15386;DHT22;7791;47.246;9.648;2023-04-03T09:49:12;5.30;99.90
15386;DHT22;7791;47.246;9.648;2023-04-03T09:51:38;5.20;99.90
15386;DHT22;7791;47.246;9.648;2023-04-03T09:54:26;5.20;99.90
15386;DHT22;7791;47.246;9.648;2023-04-03T09:57:09;5.20;99.90
15386;DHT22;7791;47.246;9.648;2023-04-03T09:59:36;5.20;99.90
15386;DHT22;7791;47.246;9.648;2023-04-03T10:02:04;5.10;99.90
15386;DHT22;7791;47.246;9.648;2023-04-03T10:04:41;5.20;99.90
15386;DHT22;7791;47.246;9.648;2023-04-03T10:07:30;5.20;99.90
15386;DHT22;7791;47.246;9.648;2023-04-03T10:09:58;5.40;99.90
15386;DHT22;7791;47.246;9.648;2023-04-03T10:12:24;5.50;99.90
15386;DHT22;7791;47.246;9.648;2023-04-03T10:14:55;5.60;99.90
15386;DHT22;7791;47.246;9.648;2023-04-03T10:17:28;5.70;99.90
15386;DHT22;7791;47.246;9.648;2023-04-03T10:19:59;5.60;99.90
15386;DHT22;7791;47.246;9.648;2023-04-03T10:22:32;5.50;99.90
15386;DHT22;7791;47.246;9.648;2023-04-03T10:25:09;5.50;99.90
15386;DHT22;7791;47.246;9.648;2023-04-03T10:27:47;5.50;99.90
15386;DHT22;7791;47.246;9.648;2023-04-03T10:30:22;5.50;99.90
15386;DHT22;7791;47.246;9.648;2023-04-03T10:33:00;5.40;99.90
15386;DHT22;7791;47.246;9.648;2023-04-03T10:35:37;5.30;99.90
15386;DHT22;7791;47.246;9.648;2023-04-03T10:38:12;5.30;99.90
15386;DHT22;7791;47.246;9.648;2023-04-03T10:40:47;5.20;99.90
15386;DHT22;7791;47.246;9.648;2023-04-03T10:43:20;5.30;99.90
15386;DHT22;7791;47.246;9.648;2023-04-03T10:45:53;5.30;99.90
15386;DHT22;7791;47.246;9.648;2023-04-03T10:48:29;5.20;99.90
15386;DHT22;7791;47.246;9.648;2023-04-03T10:51:05;5.20;99.90
15386;DHT22;7791;47.246;9.648;2023-04-03T10:53:37;5.30;99.90
15386;DHT22;7791;47.246;9.648;2023-04-03T10:56:12;5.30;99.90
15386;DHT22;7791;47.246;9.648;2023-04-03T10:58:41;5.30;99.90
15386;DHT22;7791;47.246;9.648;2023-04-03T11:01:11;5.30;99.90
15386;DHT22;7791;47.246;9.648;2023-04-03T11:03:40;5.50;99.90
15386;DHT22;7791;47.246;9.648;2023-04-03T11:06:11;5.40;99.90
15386;DHT22;7791;47.246;9.648;2023-04-03T11:08:42;5.40;99.90
15386;DHT22;7791;47.246;9.648;2023-04-03T11:11:13;5.60;99.90
15386;DHT22;7791;47.246;9.648;2023-04-03T11:13:43;5.60;99.90
15386;DHT22;7791;47.246;9.648;2023-04-03T11:16:16;5.60;99.90
15386;DHT22;7791;47.246;9.648;2023-04-03T11:18:46;5.70;99.90
15386;DHT22;7791;47.246;9.648;2023-04-03T11:21:17;5.70;99.90
15386;DHT22;7791;47.246;9.648;2023-04-03T11:23:45;5.80;99.90
15386;DHT22;7791;47.246;9.648;2023-04-03T11:26:14;5.90;99.90
15386;DHT22;7791;47.246;9.648;2023-04-03T11:28:41;5.90;99.90
15386;DHT22;7791;47.246;9.648;2023-04-03T11:31:15;5.90;99.90
15386;DHT22;7791;47.246;9.648;2023-04-03T11:33:54;6.00;99.90
15386;DHT22;7791;47.246;9.648;2023-04-03T11:36:24;6.30;99.90
15386;DHT22;7791;47.246;9.648;2023-04-03T11:38:52;6.50;99.90
15386;DHT22;7791;47.246;9.648;2023-04-03T11:41:26;6.70;99.90
15386;DHT22;7791;47.246;9.648;2023-04-03T11:43:59;6.90;99.90
15386;DHT22;7791;47.246;9.648;2023-04-03T11:46:49;6.80;99.90
15386;DHT22;7791;47.246;9.648;2023-04-03T11:49:50;6.70;99.90
15386;DHT22;7791;47.246;9.648;2023-04-03T11:55:53;6.70;99.90
15386;DHT22;7791;47.246;9.648;2023-04-03T11:58:22;7.00;99.90
15386;DHT22;7791;47.246;9.648;2023-04-03T12:00:54;6.90;99.90
15386;DHT22;7791;47.246;9.648;2023-04-03T12:04:07;7.10;99.90
15386;DHT22;7791;47.246;9.648;2023-04-03T12:07:01;7.10;99.90
15386;DHT22;7791;47.246;9.648;2023-04-03T12:09:33;7.40;99.90
15386;DHT22;7791;47.246;9.648;2023-04-03T12:12:07;7.00;99.90
15386;DHT22;7791;47.246;9.648;2023-04-03T12:14:47;6.90;99.90
15386;DHT22;7791;47.246;9.648;2023-04-03T12:17:20;6.90;99.90
15386;DHT22;7791;47.246;9.648;2023-04-03T12:19:48;6.90;99.90
15386;DHT22;7791;47.246;9.648;2023-04-03T12:22:18;7.30;99.90
15386;DHT22;7791;47.246;9.648;2023-04-03T12:24:45;7.60;99.90
15386;DHT22;7791;47.246;9.648;2023-04-03T12:27:24;7.20;99.90
15386;DHT22;7791;47.246;9.648;2023-04-03T12:29:58;7.30;99.90
15386;DHT22;7791;47.246;9.648;2023-04-03T12:35:24;6.90;99.90
15386;DHT22;7791;47.246;9.648;2023-04-03T12:38:16;7.00;99.90
15386;DHT22;7791;47.246;9.648;2023-04-03T12:40:50;6.80;99.90
15386;DHT22;7791;47.246;9.648;2023-04-03T12:43:26;6.90;99.90
15386;DHT22;7791;47.246;9.648;2023-04-03T12:46:02;7.00;99.90
15386;DHT22;7791;47.246;9.648;2023-04-03T12:48:30;7.20;99.90
15386;DHT22;7791;47.246;9.648;2023-04-03T12:50:57;7.50;99.90
15386;DHT22;7791;47.246;9.648;2023-04-03T12:53:26;7.80;99.90
15386;DHT22;7791;47.246;9.648;2023-04-03T12:55:54;7.80;99.90
15386;DHT22;7791;47.246;9.648;2023-04-03T12:58:22;7.90;99.90
15386;DHT22;7791;47.246;9.648;2023-04-03T13:01:01;7.70;99.90
15386;DHT22;7791;47.246;9.648;2023-04-03T13:03:27;7.70;99.90
15386;DHT22;7791;47.246;9.648;2023-04-03T13:06:00;7.70;99.90
15386;DHT22;7791;47.246;9.648;2023-04-03T13:08:26;7.70;99.90
15386;DHT22;7791;47.246;9.648;2023-04-03T13:10:55;7.70;99.90
15386;DHT22;7791;47.246;9.648;2023-04-03T13:13:22;8.20;99.90
15386;DHT22;7791;47.246;9.648;2023-04-03T13:15:49;8.40;99.90
15386;DHT22;7791;47.246;9.648;2023-04-03T13:18:27;8.10;99.90
15386;DHT22;7791;47.246;9.648;2023-04-03T13:20:58;8.00;99.90
15386;DHT22;7791;47.246;9.648;2023-04-03T13:23:25;7.80;99.90
15386;DHT22;7791;47.246;9.648;2023-04-03T13:25:51;7.70;99.90
15386;DHT22;7791;47.246;9.648;2023-04-03T13:28:21;7.90;99.90
15386;DHT22;7791;47.246;9.648;2023-04-03T13:30:56;7.80;99.90
15386;DHT22;7791;47.246;9.648;2023-04-03T13:33:26;7.90;99.90
15386;DHT22;7791;47.246;9.648;2023-04-03T13:35:57;8.00;99.90
15386;DHT22;7791;47.246;9.648;2023-04-03T13:38:25;8.00;99.90
15386;DHT22;7791;47.246;9.648;2023-04-03T13:40:52;7.90;99.90
15386;DHT22;7791;47.246;9.648;2023-04-03T13:43:20;7.70;99.90
15386;DHT22;7791;47.246;9.648;2023-04-03T13:46:02;7.70;99.90
15386;DHT22;7791;47.246;9.648;2023-04-03T13:48:35;7.70;99.90
15386;DHT22;7791;47.246;9.648;2023-04-03T13:51:04;7.70;99.90
15386;DHT22;7791;47.246;9.648;2023-04-03T13:53:33;7.80;99.90
15386;DHT22;7791;47.246;9.648;2023-04-03T13:56:06;7.70;99.90
15386;DHT22;7791;47.246;9.648;2023-04-03T13:58:33;7.70;99.90
15386;DHT22;7791;47.246;9.648;2023-04-03T14:01:06;7.70;99.90
15386;DHT22;7791;47.246;9.648;2023-04-03T14:03:44;7.60;99.90
15386;DHT22;7791;47.246;9.648;2023-04-03T14:06:11;7.70;99.90
15386;DHT22;7791;47.246;9.648;2023-04-03T14:08:37;7.70;99.90
15386;DHT22;7791;47.246;9.648;2023-04-03T14:11:03;7.70;99.90
15386;DHT22;7791;47.246;9.648;2023-04-03T14:13:30;7.70;99.90
15386;DHT22;7791;47.246;9.648;2023-04-03T14:15:57;7.70;99.90
15386;DHT22;7791;47.246;9.648;2023-04-03T14:18:22;7.90;99.90
15386;DHT22;7791;47.246;9.648;2023-04-03T14:20:50;8.20;99.90
15386;DHT22;7791;47.246;9.648;2023-04-03T14:23:15;8.30;99.90
15386;DHT22;7791;47.246;9.648;2023-04-03T14:25:42;8.30;99.90
15386;DHT22;7791;47.246;9.648;2023-04-03T14:28:15;8.20;99.90
15386;DHT22;7791;47.246;9.648;2023-04-03T14:30:41;8.00;99.90
15386;DHT22;7791;47.246;9.648;2023-04-03T14:33:10;8.00;99.90
15386;DHT22;7791;47.246;9.648;2023-04-03T14:35:38;8.00;99.90
15386;DHT22;7791;47.246;9.648;2023-04-03T14:38:16;8.10;99.90
15386;DHT22;7791;47.246;9.648;2023-04-03T14:40:45;8.10;99.90
15386;DHT22;7791;47.246;9.648;2023-04-03T14:43:12;8.10;99.90
15386;DHT22;7791;47.246;9.648;2023-04-03T14:45:39;7.80;99.90
15386;DHT22;7791;47.246;9.648;2023-04-03T14:48:06;7.50;99.90
15386;DHT22;7791;47.246;9.648;2023-04-03T14:50:35;7.50;99.90
15386;DHT22;7791;47.246;9.648;2023-04-03T14:53:01;7.70;99.90
15386;DHT22;7791;47.246;9.648;2023-04-03T14:55:28;7.70;99.90
15386;DHT22;7791;47.246;9.648;2023-04-03T14:57:55;7.70;99.90
15386;DHT22;7791;47.246;9.648;2023-04-03T15:00:22;7.90;99.90
15386;DHT22;7791;47.246;9.648;2023-04-03T15:02:48;7.80;99.90
15386;DHT22;7791;47.246;9.648;2023-04-03T15:05:14;7.90;99.90
15386;DHT22;7791;47.246;9.648;2023-04-03T15:10:31;7.60;99.90
15386;DHT22;7791;47.246;9.648;2023-04-03T15:12:57;7.40;99.90
15386;DHT22;7791;47.246;9.648;2023-04-03T15:15:24;7.40;99.90
15386;DHT22;7791;47.246;9.648;2023-04-03T15:17:52;7.50;99.90
15386;DHT22;7791;47.246;9.648;2023-04-03T15:20:20;7.50;99.90
15386;DHT22;7791;47.246;9.648;2023-04-03T15:22:47;7.50;99.90
15386;DHT22;7791;47.246;9.648;2023-04-03T15:25:13;7.40;99.90
15386;DHT22;7791;47.246;9.648;2023-04-03T15:27:40;7.60;99.90
15386;DHT22;7791;47.246;9.648;2023-04-03T15:30:08;7.30;99.90
15386;DHT22;7791;47.246;9.648;2023-04-03T15:32:34;7.30;99.90
15386;DHT22;7791;47.246;9.648;2023-04-03T15:35:00;7.40;99.90
15386;DHT22;7791;47.246;9.648;2023-04-03T15:37:25;7.50;99.90
15386;DHT22;7791;47.246;9.648;2023-04-03T15:39:51;7.60;99.90
15386;DHT22;7791;47.246;9.648;2023-04-03T15:42:17;7.70;99.90
15386;DHT22;7791;47.246;9.648;2023-04-03T15:44:44;7.60;99.90
15386;DHT22;7791;47.246;9.648;2023-04-03T15:47:10;7.40;99.90
15386;DHT22;7791;47.246;9.648;2023-04-03T15:49:36;7.20;99.90
15386;DHT22;7791;47.246;9.648;2023-04-03T15:52:02;7.00;99.90
15386;DHT22;7791;47.246;9.648;2023-04-03T15:54:29;6.90;99.90
15386;DHT22;7791;47.246;9.648;2023-04-03T15:56:55;6.70;99.90
15386;DHT22;7791;47.246;9.648;2023-04-03T15:59:21;6.70;99.90
15386;DHT22;7791;47.246;9.648;2023-04-03T16:01:49;6.70;99.90
15386;DHT22;7791;47.246;9.648;2023-04-03T16:04:16;6.70;99.90
15386;DHT22;7791;47.246;9.648;2023-04-03T16:06:42;6.50;99.90
15386;DHT22;7791;47.246;9.648;2023-04-03T16:09:11;6.50;99.90
15386;DHT22;7791;47.246;9.648;2023-04-03T16:11:37;6.40;99.90
15386;DHT22;7791;47.246;9.648;2023-04-03T16:14:03;6.40;99.90
15386;DHT22;7791;47.246;9.648;2023-04-03T16:16:29;6.40;99.90
15386;DHT22;7791;47.246;9.648;2023-04-03T16:18:56;6.50;99.90
15386;DHT22;7791;47.246;9.648;2023-04-03T16:21:23;6.40;99.90
15386;DHT22;7791;47.246;9.648;2023-04-03T16:23:55;6.40;99.90
15386;DHT22;7791;47.246;9.648;2023-04-03T16:26:21;6.30;99.90
15386;DHT22;7791;47.246;9.648;2023-04-03T16:28:47;6.20;99.90